sensor_id;sensor_type;location;lat;lon;timestamp;P1;durP1;ratioP1;P2;durP2;ratioP2
80332;SDS011;69652;51.864;-2.246;2023-11-19T00:00:21;28.95;;;5.63;;
80332;SDS011;69652;51.864;-2.246;2023-11-19T00:02:48;35.05;;;7.60;;
80332;SDS011;69652;51.864;-2.246;2023-11-19T00:05:14;27.45;;;5.72;;
80332;SDS011;69652;51.864;-2.246;2023-11-19T00:07:39;37.08;;;5.07;;
80332;SDS011;69652;51.864;-2.246;2023-11-19T00:10:09;47.55;;;8.30;;
80332;SDS011;69652;51.864;-2.246;2023-11-19T00:12:39;37.42;;;6.40;;
80332;SDS011;69652;51.864;-2.246;2023-11-19T00:15:07;44.78;;;8.93;;
80332;SDS011;69652;51.864;-2.246;2023-11-19T00:17:42;47.97;;;11.63;;
80332;SDS011;69652;51.864;-2.246;2023-11-19T00:20:10;42.10;;;10.65;;
80332;SDS011;69652;51.864;-2.246;2023-11-19T00:22:39;31.88;;;7.07;;
80332;SDS011;69652;51.864;-2.246;2023-11-19T00:25:07;39.25;;;9.57;;
80332;SDS011;69652;51.864;-2.246;2023-11-19T00:27:32;39.78;;;10.48;;
80332;SDS011;69652;51.864;-2.246;2023-11-19T00:29:58;33.03;;;6.22;;
80332;SDS011;69652;51.864;-2.246;2023-11-19T00:32:23;39.50;;;5.95;;
80332;SDS011;69652;51.864;-2.246;2023-11-19T00:34:49;34.53;;;6.18;;
80332;SDS011;69652;51.864;-2.246;2023-11-19T00:37:15;40.25;;;6.35;;
80332;SDS011;69652;51.864;-2.246;2023-11-19T00:39:41;44.08;;;6.82;;
80332;SDS011;69652;51.864;-2.246;2023-11-19T00:42:07;40.95;;;7.53;;
80332;SDS011;69652;51.864;-2.246;2023-11-19T00:44:32;46.05;;;7.53;;
80332;SDS011;69652;51.864;-2.246;2023-11-19T00:46:58;28.92;;;5.85;;
80332;SDS011;69652;51.864;-2.246;2023-11-19T00:49:25;30.85;;;7.20;;
80332;SDS011;69652;51.864;-2.246;2023-11-19T00:51:50;29.08;;;5.82;;
80332;SDS011;69652;51.864;-2.246;2023-11-19T00:54:15;37.92;;;6.07;;
80332;SDS011;69652;51.864;-2.246;2023-11-19T00:56:41;47.75;;;9.20;;
80332;SDS011;69652;51.864;-2.246;2023-11-19T00:59:06;32.58;;;8.55;;
80332;SDS011;69652;51.864;-2.246;2023-11-19T01:01:32;40.70;;;5.85;;
80332;SDS011;69652;51.864;-2.246;2023-11-19T01:03:58;37.05;;;9.20;;
80332;SDS011;69652;51.864;-2.246;2023-11-19T01:06:30;50.97;;;11.32;;
80332;SDS011;69652;51.864;-2.246;2023-11-19T01:08:56;41.88;;;8.73;;
80332;SDS011;69652;51.864;-2.246;2023-11-19T01:11:22;46.90;;;11.20;;
80332;SDS011;69652;51.864;-2.246;2023-11-19T01:13:48;36.00;;;6.20;;
80332;SDS011;69652;51.864;-2.246;2023-11-19T01:16:15;33.00;;;7.85;;
80332;SDS011;69652;51.864;-2.246;2023-11-19T01:18:40;41.95;;;7.50;;
80332;SDS011;69652;51.864;-2.246;2023-11-19T01:21:06;38.15;;;7.72;;
80332;SDS011;69652;51.864;-2.246;2023-11-19T01:23:31;45.17;;;9.13;;
80332;SDS011;69652;51.864;-2.246;2023-11-19T01:25:57;32.53;;;7.93;;
80332;SDS011;69652;51.864;-2.246;2023-11-19T01:28:23;33.10;;;8.75;;
80332;SDS011;69652;51.864;-2.246;2023-11-19T01:30:51;51.35;;;13.20;;
80332;SDS011;69652;51.864;-2.246;2023-11-19T01:33:17;38.00;;;9.25;;
80332;SDS011;69652;51.864;-2.246;2023-11-19T01:35:43;35.35;;;6.28;;
80332;SDS011;69652;51.864;-2.246;2023-11-19T01:38:08;25.15;;;5.85;;
80332;SDS011;69652;51.864;-2.246;2023-11-19T01:40:34;33.05;;;6.28;;
80332;SDS011;69652;51.864;-2.246;2023-11-19T01:43:01;36.05;;;6.93;;
80332;SDS011;69652;51.864;-2.246;2023-11-19T01:45:28;28.73;;;6.35;;
80332;SDS011;69652;51.864;-2.246;2023-11-19T01:47:59;49.20;;;6.15;;
80332;SDS011;69652;51.864;-2.246;2023-11-19T01:50:28;36.47;;;6.97;;
80332;SDS011;69652;51.864;-2.246;2023-11-19T01:52:55;44.28;;;6.70;;
80332;SDS011;69652;51.864;-2.246;2023-11-19T01:55:25;31.33;;;6.35;;
80332;SDS011;69652;51.864;-2.246;2023-11-19T01:57:53;29.70;;;5.20;;
80332;SDS011;69652;51.864;-2.246;2023-11-19T02:00:24;35.85;;;7.82;;
80332;SDS011;69652;51.864;-2.246;2023-11-19T02:02:50;37.08;;;4.95;;
80332;SDS011;69652;51.864;-2.246;2023-11-19T02:05:17;31.77;;;5.15;;
80332;SDS011;69652;51.864;-2.246;2023-11-19T02:07:43;27.52;;;5.63;;
80332;SDS011;69652;51.864;-2.246;2023-11-19T02:10:08;38.78;;;6.63;;
80332;SDS011;69652;51.864;-2.246;2023-11-19T02:12:39;28.02;;;5.13;;
80332;SDS011;69652;51.864;-2.246;2023-11-19T02:15:08;33.45;;;5.65;;
80332;SDS011;69652;51.864;-2.246;2023-11-19T02:17:34;37.88;;;5.88;;
80332;SDS011;69652;51.864;-2.246;2023-11-19T02:19:59;37.70;;;5.85;;
80332;SDS011;69652;51.864;-2.246;2023-11-19T02:22:25;34.75;;;5.32;;
80332;SDS011;69652;51.864;-2.246;2023-11-19T02:24:52;31.17;;;5.38;;
80332;SDS011;69652;51.864;-2.246;2023-11-19T02:27:46;30.67;;;5.35;;
80332;SDS011;69652;51.864;-2.246;2023-11-19T02:30:22;39.88;;;6.20;;
80332;SDS011;69652;51.864;-2.246;2023-11-19T02:32:55;28.92;;;5.43;;
80332;SDS011;69652;51.864;-2.246;2023-11-19T02:35:22;39.10;;;6.65;;
80332;SDS011;69652;51.864;-2.246;2023-11-19T02:37:48;30.40;;;6.18;;
80332;SDS011;69652;51.864;-2.246;2023-11-19T02:40:14;37.47;;;7.30;;
80332;SDS011;69652;51.864;-2.246;2023-11-19T02:42:40;38.97;;;6.47;;
80332;SDS011;69652;51.864;-2.246;2023-11-19T02:45:06;34.05;;;5.85;;
80332;SDS011;69652;51.864;-2.246;2023-11-19T02:47:33;27.45;;;5.55;;
80332;SDS011;69652;51.864;-2.246;2023-11-19T02:49:59;34.97;;;6.28;;
80332;SDS011;69652;51.864;-2.246;2023-11-19T02:52:25;30.45;;;5.55;;
80332;SDS011;69652;51.864;-2.246;2023-11-19T02:54:50;40.28;;;7.75;;
80332;SDS011;69652;51.864;-2.246;2023-11-19T02:57:16;33.42;;;4.90;;
80332;SDS011;69652;51.864;-2.246;2023-11-19T02:59:44;24.60;;;4.80;;
80332;SDS011;69652;51.864;-2.246;2023-11-19T03:02:10;26.77;;;5.57;;
80332;SDS011;69652;51.864;-2.246;2023-11-19T03:04:41;37.35;;;4.68;;
80332;SDS011;69652;51.864;-2.246;2023-11-19T03:07:08;28.73;;;5.32;;
80332;SDS011;69652;51.864;-2.246;2023-11-19T03:09:33;26.92;;;5.03;;
80332;SDS011;69652;51.864;-2.246;2023-11-19T03:12:00;29.75;;;4.47;;
80332;SDS011;69652;51.864;-2.246;2023-11-19T03:14:26;32.75;;;5.38;;
80332;SDS011;69652;51.864;-2.246;2023-11-19T03:16:52;31.48;;;5.65;;
80332;SDS011;69652;51.864;-2.246;2023-11-19T03:19:18;32.30;;;5.28;;
80332;SDS011;69652;51.864;-2.246;2023-11-19T03:21:43;27.05;;;4.75;;
80332;SDS011;69652;51.864;-2.246;2023-11-19T03:24:10;29.27;;;4.78;;
80332;SDS011;69652;51.864;-2.246;2023-11-19T03:26:35;31.73;;;5.95;;
80332;SDS011;69652;51.864;-2.246;2023-11-19T03:29:02;29.60;;;4.88;;
80332;SDS011;69652;51.864;-2.246;2023-11-19T03:31:27;19.00;;;4.30;;
80332;SDS011;69652;51.864;-2.246;2023-11-19T03:33:53;24.95;;;3.45;;
80332;SDS011;69652;51.864;-2.246;2023-11-19T03:36:19;20.92;;;4.22;;
80332;SDS011;69652;51.864;-2.246;2023-11-19T03:38:44;15.90;;;3.40;;
80332;SDS011;69652;51.864;-2.246;2023-11-19T03:41:13;19.63;;;4.15;;
80332;SDS011;69652;51.864;-2.246;2023-11-19T03:43:40;14.82;;;2.80;;
80332;SDS011;69652;51.864;-2.246;2023-11-19T03:46:16;11.93;;;2.42;;
80332;SDS011;69652;51.864;-2.246;2023-11-19T03:48:46;12.70;;;2.85;;
80332;SDS011;69652;51.864;-2.246;2023-11-19T03:51:12;16.17;;;2.67;;
80332;SDS011;69652;51.864;-2.246;2023-11-19T03:53:44;13.27;;;2.47;;
80332;SDS011;69652;51.864;-2.246;2023-11-19T03:56:10;16.10;;;2.67;;
80332;SDS011;69652;51.864;-2.246;2023-11-19T03:58:37;16.70;;;2.30;;
80332;SDS011;69652;51.864;-2.246;2023-11-19T04:01:06;9.23;;;2.35;;
80332;SDS011;69652;51.864;-2.246;2023-11-19T04:03:35;12.18;;;2.58;;
80332;SDS011;69652;51.864;-2.246;2023-11-19T04:06:01;12.90;;;2.47;;
80332;SDS011;69652;51.864;-2.246;2023-11-19T04:08:27;16.63;;;2.38;;
80332;SDS011;69652;51.864;-2.246;2023-11-19T04:10:52;12.32;;;2.38;;
80332;SDS011;69652;51.864;-2.246;2023-11-19T04:13:18;14.30;;;3.20;;
80332;SDS011;69652;51.864;-2.246;2023-11-19T04:15:44;13.43;;;2.70;;
80332;SDS011;69652;51.864;-2.246;2023-11-19T04:18:10;17.95;;;3.13;;
80332;SDS011;69652;51.864;-2.246;2023-11-19T04:20:36;17.75;;;3.40;;
80332;SDS011;69652;51.864;-2.246;2023-11-19T04:23:01;17.85;;;3.20;;
80332;SDS011;69652;51.864;-2.246;2023-11-19T04:25:27;19.35;;;3.90;;
80332;SDS011;69652;51.864;-2.246;2023-11-19T04:27:52;13.43;;;3.70;;
80332;SDS011;69652;51.864;-2.246;2023-11-19T04:30:18;22.40;;;4.30;;
80332;SDS011;69652;51.864;-2.246;2023-11-19T04:32:43;30.42;;;4.13;;
80332;SDS011;69652;51.864;-2.246;2023-11-19T04:35:09;16.80;;;3.63;;
80332;SDS011;69652;51.864;-2.246;2023-11-19T04:37:35;21.95;;;4.70;;
80332;SDS011;69652;51.864;-2.246;2023-11-19T04:40:02;27.52;;;3.90;;
80332;SDS011;69652;51.864;-2.246;2023-11-19T04:42:28;24.27;;;3.97;;
80332;SDS011;69652;51.864;-2.246;2023-11-19T04:44:54;25.48;;;3.50;;
80332;SDS011;69652;51.864;-2.246;2023-11-19T04:47:20;20.83;;;2.83;;
80332;SDS011;69652;51.864;-2.246;2023-11-19T04:49:45;24.77;;;4.28;;
80332;SDS011;69652;51.864;-2.246;2023-11-19T04:52:11;26.40;;;4.90;;
80332;SDS011;69652;51.864;-2.246;2023-11-19T04:54:42;19.25;;;3.50;;
80332;SDS011;69652;51.864;-2.246;2023-11-19T04:57:10;22.77;;;4.68;;
80332;SDS011;69652;51.864;-2.246;2023-11-19T04:59:36;19.15;;;3.03;;
80332;SDS011;69652;51.864;-2.246;2023-11-19T05:02:02;25.35;;;3.70;;
80332;SDS011;69652;51.864;-2.246;2023-11-19T05:04:29;26.23;;;4.55;;
80332;SDS011;69652;51.864;-2.246;2023-11-19T05:06:54;28.00;;;4.15;;
80332;SDS011;69652;51.864;-2.246;2023-11-19T05:09:20;26.92;;;4.32;;
80332;SDS011;69652;51.864;-2.246;2023-11-19T05:11:45;19.52;;;4.30;;
80332;SDS011;69652;51.864;-2.246;2023-11-19T05:14:11;17.88;;;3.53;;
80332;SDS011;69652;51.864;-2.246;2023-11-19T05:16:39;24.25;;;3.78;;
80332;SDS011;69652;51.864;-2.246;2023-11-19T05:19:05;19.40;;;3.42;;
80332;SDS011;69652;51.864;-2.246;2023-11-19T05:21:30;30.58;;;4.43;;
80332;SDS011;69652;51.864;-2.246;2023-11-19T05:23:56;30.92;;;4.50;;
80332;SDS011;69652;51.864;-2.246;2023-11-19T05:26:22;28.60;;;3.97;;
80332;SDS011;69652;51.864;-2.246;2023-11-19T05:28:49;31.63;;;4.55;;
80332;SDS011;69652;51.864;-2.246;2023-11-19T05:31:15;26.80;;;4.53;;
80332;SDS011;69652;51.864;-2.246;2023-11-19T05:33:41;29.15;;;4.20;;
80332;SDS011;69652;51.864;-2.246;2023-11-19T05:36:07;34.92;;;5.20;;
80332;SDS011;69652;51.864;-2.246;2023-11-19T05:38:35;27.50;;;4.93;;
80332;SDS011;69652;51.864;-2.246;2023-11-19T05:41:01;35.60;;;6.28;;
80332;SDS011;69652;51.864;-2.246;2023-11-19T05:43:27;24.75;;;4.72;;
80332;SDS011;69652;51.864;-2.246;2023-11-19T05:45:53;34.33;;;6.13;;
80332;SDS011;69652;51.864;-2.246;2023-11-19T05:48:18;28.30;;;5.22;;
80332;SDS011;69652;51.864;-2.246;2023-11-19T05:50:43;32.22;;;4.55;;
80332;SDS011;69652;51.864;-2.246;2023-11-19T05:53:09;31.55;;;5.72;;
80332;SDS011;69652;51.864;-2.246;2023-11-19T05:55:38;32.10;;;4.97;;
80332;SDS011;69652;51.864;-2.246;2023-11-19T06:00:54;36.10;;;4.88;;
80332;SDS011;69652;51.864;-2.246;2023-11-19T06:03:20;29.85;;;5.10;;
80332;SDS011;69652;51.864;-2.246;2023-11-19T06:05:46;25.65;;;4.32;;
80332;SDS011;69652;51.864;-2.246;2023-11-19T06:08:13;28.70;;;4.55;;
80332;SDS011;69652;51.864;-2.246;2023-11-19T06:10:40;27.92;;;4.32;;
80332;SDS011;69652;51.864;-2.246;2023-11-19T06:13:06;22.40;;;3.85;;
80332;SDS011;69652;51.864;-2.246;2023-11-19T06:15:32;22.95;;;3.85;;
80332;SDS011;69652;51.864;-2.246;2023-11-19T06:17:58;22.50;;;3.60;;
80332;SDS011;69652;51.864;-2.246;2023-11-19T06:20:28;26.25;;;3.88;;
80332;SDS011;69652;51.864;-2.246;2023-11-19T06:22:55;19.50;;;3.92;;
80332;SDS011;69652;51.864;-2.246;2023-11-19T06:25:21;25.80;;;3.42;;
80332;SDS011;69652;51.864;-2.246;2023-11-19T06:27:49;25.40;;;4.75;;
80332;SDS011;69652;51.864;-2.246;2023-11-19T06:30:14;25.42;;;4.05;;
80332;SDS011;69652;51.864;-2.246;2023-11-19T06:32:40;21.90;;;4.30;;
80332;SDS011;69652;51.864;-2.246;2023-11-19T06:35:05;25.05;;;4.78;;
80332;SDS011;69652;51.864;-2.246;2023-11-19T06:37:31;19.23;;;3.63;;
80332;SDS011;69652;51.864;-2.246;2023-11-19T06:39:57;21.83;;;4.28;;
80332;SDS011;69652;51.864;-2.246;2023-11-19T06:42:22;18.45;;;3.65;;
80332;SDS011;69652;51.864;-2.246;2023-11-19T06:44:47;26.00;;;4.13;;
80332;SDS011;69652;51.864;-2.246;2023-11-19T06:47:13;30.55;;;4.63;;
80332;SDS011;69652;51.864;-2.246;2023-11-19T06:49:38;24.05;;;5.22;;
80332;SDS011;69652;51.864;-2.246;2023-11-19T06:52:04;19.13;;;3.17;;
80332;SDS011;69652;51.864;-2.246;2023-11-19T06:54:30;24.85;;;3.42;;
80332;SDS011;69652;51.864;-2.246;2023-11-19T06:56:56;24.38;;;3.70;;
80332;SDS011;69652;51.864;-2.246;2023-11-19T06:59:22;24.92;;;3.85;;
80332;SDS011;69652;51.864;-2.246;2023-11-19T07:01:48;26.52;;;4.05;;
80332;SDS011;69652;51.864;-2.246;2023-11-19T07:04:14;25.77;;;3.88;;
80332;SDS011;69652;51.864;-2.246;2023-11-19T07:06:39;21.45;;;3.53;;
80332;SDS011;69652;51.864;-2.246;2023-11-19T07:09:08;26.98;;;3.80;;
80332;SDS011;69652;51.864;-2.246;2023-11-19T07:11:37;25.20;;;3.38;;
80332;SDS011;69652;51.864;-2.246;2023-11-19T07:14:04;28.55;;;4.10;;
80332;SDS011;69652;51.864;-2.246;2023-11-19T07:16:29;24.60;;;4.13;;
80332;SDS011;69652;51.864;-2.246;2023-11-19T07:18:55;25.67;;;4.15;;
80332;SDS011;69652;51.864;-2.246;2023-11-19T07:21:21;23.67;;;3.85;;
80332;SDS011;69652;51.864;-2.246;2023-11-19T07:23:46;19.85;;;3.15;;
80332;SDS011;69652;51.864;-2.246;2023-11-19T07:26:12;23.00;;;4.40;;
80332;SDS011;69652;51.864;-2.246;2023-11-19T07:28:38;16.05;;;2.72;;
80332;SDS011;69652;51.864;-2.246;2023-11-19T07:31:05;22.27;;;3.67;;
80332;SDS011;69652;51.864;-2.246;2023-11-19T07:33:32;25.20;;;4.00;;
80332;SDS011;69652;51.864;-2.246;2023-11-19T07:35:58;22.60;;;3.53;;
80332;SDS011;69652;51.864;-2.246;2023-11-19T07:38:24;17.67;;;3.72;;
80332;SDS011;69652;51.864;-2.246;2023-11-19T07:40:49;15.52;;;2.67;;
80332;SDS011;69652;51.864;-2.246;2023-11-19T07:43:15;17.05;;;3.88;;
80332;SDS011;69652;51.864;-2.246;2023-11-19T07:45:41;21.73;;;3.45;;
80332;SDS011;69652;51.864;-2.246;2023-11-19T07:48:08;17.13;;;2.85;;
80332;SDS011;69652;51.864;-2.246;2023-11-19T07:50:34;16.80;;;2.83;;
80332;SDS011;69652;51.864;-2.246;2023-11-19T07:52:59;22.63;;;3.50;;
80332;SDS011;69652;51.864;-2.246;2023-11-19T07:55:25;29.15;;;4.43;;
80332;SDS011;69652;51.864;-2.246;2023-11-19T07:57:52;25.35;;;3.78;;
80332;SDS011;69652;51.864;-2.246;2023-11-19T08:00:17;27.05;;;3.80;;
80332;SDS011;69652;51.864;-2.246;2023-11-19T08:02:44;22.00;;;4.40;;
80332;SDS011;69652;51.864;-2.246;2023-11-19T08:05:10;32.63;;;5.72;;
80332;SDS011;69652;51.864;-2.246;2023-11-19T08:07:36;22.25;;;4.60;;
80332;SDS011;69652;51.864;-2.246;2023-11-19T08:10:05;20.10;;;4.25;;
80332;SDS011;69652;51.864;-2.246;2023-11-19T08:12:34;33.47;;;4.70;;
80332;SDS011;69652;51.864;-2.246;2023-11-19T08:15:01;18.55;;;4.43;;
80332;SDS011;69652;51.864;-2.246;2023-11-19T08:17:30;22.02;;;4.65;;
80332;SDS011;69652;51.864;-2.246;2023-11-19T08:19:55;26.40;;;3.80;;
80332;SDS011;69652;51.864;-2.246;2023-11-19T08:22:21;21.60;;;4.18;;
80332;SDS011;69652;51.864;-2.246;2023-11-19T08:24:47;25.88;;;4.43;;
80332;SDS011;69652;51.864;-2.246;2023-11-19T08:27:13;23.45;;;4.20;;
80332;SDS011;69652;51.864;-2.246;2023-11-19T08:29:39;25.60;;;4.40;;
80332;SDS011;69652;51.864;-2.246;2023-11-19T08:32:05;26.58;;;4.60;;
80332;SDS011;69652;51.864;-2.246;2023-11-19T08:34:31;22.98;;;4.10;;
80332;SDS011;69652;51.864;-2.246;2023-11-19T08:36:57;21.42;;;3.25;;
80332;SDS011;69652;51.864;-2.246;2023-11-19T08:39:22;27.95;;;5.15;;
80332;SDS011;69652;51.864;-2.246;2023-11-19T08:41:49;26.95;;;4.35;;
80332;SDS011;69652;51.864;-2.246;2023-11-19T08:44:15;32.45;;;4.63;;
80332;SDS011;69652;51.864;-2.246;2023-11-19T08:46:50;28.02;;;4.20;;
80332;SDS011;69652;51.864;-2.246;2023-11-19T08:49:15;30.58;;;4.72;;
80332;SDS011;69652;51.864;-2.246;2023-11-19T08:51:41;28.10;;;4.75;;
80332;SDS011;69652;51.864;-2.246;2023-11-19T08:54:06;32.70;;;4.72;;
80332;SDS011;69652;51.864;-2.246;2023-11-19T08:56:32;26.70;;;4.55;;
80332;SDS011;69652;51.864;-2.246;2023-11-19T08:58:59;24.30;;;3.38;;
80332;SDS011;69652;51.864;-2.246;2023-11-19T09:01:25;28.35;;;4.25;;
80332;SDS011;69652;51.864;-2.246;2023-11-19T09:03:51;20.17;;;3.33;;
80332;SDS011;69652;51.864;-2.246;2023-11-19T09:06:17;21.20;;;4.18;;
80332;SDS011;69652;51.864;-2.246;2023-11-19T09:08:42;21.20;;;4.35;;
80332;SDS011;69652;51.864;-2.246;2023-11-19T09:11:08;22.77;;;3.47;;
80332;SDS011;69652;51.864;-2.246;2023-11-19T09:13:34;25.02;;;4.47;;
80332;SDS011;69652;51.864;-2.246;2023-11-19T09:16:00;21.90;;;3.65;;
80332;SDS011;69652;51.864;-2.246;2023-11-19T09:18:29;29.08;;;4.32;;
80332;SDS011;69652;51.864;-2.246;2023-11-19T09:20:56;21.05;;;3.55;;
80332;SDS011;69652;51.864;-2.246;2023-11-19T09:23:22;17.45;;;3.83;;
80332;SDS011;69652;51.864;-2.246;2023-11-19T09:25:47;18.48;;;4.05;;
80332;SDS011;69652;51.864;-2.246;2023-11-19T09:28:13;22.75;;;3.83;;
80332;SDS011;69652;51.864;-2.246;2023-11-19T09:30:39;30.90;;;5.57;;
80332;SDS011;69652;51.864;-2.246;2023-11-19T09:33:04;23.45;;;5.13;;
80332;SDS011;69652;51.864;-2.246;2023-11-19T09:35:31;25.20;;;4.63;;
80332;SDS011;69652;51.864;-2.246;2023-11-19T09:37:56;26.77;;;4.18;;
80332;SDS011;69652;51.864;-2.246;2023-11-19T09:40:22;21.58;;;4.20;;
80332;SDS011;69652;51.864;-2.246;2023-11-19T09:42:47;18.80;;;3.20;;
80332;SDS011;69652;51.864;-2.246;2023-11-19T09:45:14;20.63;;;3.63;;
80332;SDS011;69652;51.864;-2.246;2023-11-19T09:47:44;20.88;;;3.33;;
80332;SDS011;69652;51.864;-2.246;2023-11-19T09:50:18;24.85;;;4.18;;
80332;SDS011;69652;51.864;-2.246;2023-11-19T09:52:44;29.65;;;4.40;;
80332;SDS011;69652;51.864;-2.246;2023-11-19T09:55:10;17.30;;;3.33;;
80332;SDS011;69652;51.864;-2.246;2023-11-19T09:57:38;24.33;;;4.35;;
80332;SDS011;69652;51.864;-2.246;2023-11-19T10:00:06;21.70;;;3.22;;
80332;SDS011;69652;51.864;-2.246;2023-11-19T10:02:33;27.17;;;5.57;;
80332;SDS011;69652;51.864;-2.246;2023-11-19T10:05:02;30.65;;;3.85;;
80332;SDS011;69652;51.864;-2.246;2023-11-19T10:07:31;34.45;;;5.97;;
80332;SDS011;69652;51.864;-2.246;2023-11-19T10:10:00;26.70;;;3.97;;
80332;SDS011;69652;51.864;-2.246;2023-11-19T10:12:29;19.02;;;3.97;;
80332;SDS011;69652;51.864;-2.246;2023-11-19T10:14:58;29.83;;;4.20;;
80332;SDS011;69652;51.864;-2.246;2023-11-19T10:17:28;23.20;;;4.15;;
80332;SDS011;69652;51.864;-2.246;2023-11-19T10:19:54;21.10;;;3.92;;
80332;SDS011;69652;51.864;-2.246;2023-11-19T10:22:22;21.40;;;4.00;;
80332;SDS011;69652;51.864;-2.246;2023-11-19T10:24:48;11.55;;;2.70;;
80332;SDS011;69652;51.864;-2.246;2023-11-19T10:27:13;17.48;;;3.33;;
80332;SDS011;69652;51.864;-2.246;2023-11-19T10:29:39;17.83;;;3.15;;
80332;SDS011;69652;51.864;-2.246;2023-11-19T10:32:05;17.88;;;3.85;;
80332;SDS011;69652;51.864;-2.246;2023-11-19T10:34:31;17.50;;;3.65;;
80332;SDS011;69652;51.864;-2.246;2023-11-19T10:36:56;15.98;;;2.50;;
80332;SDS011;69652;51.864;-2.246;2023-11-19T10:39:22;15.57;;;3.13;;
80332;SDS011;69652;51.864;-2.246;2023-11-19T10:41:49;24.77;;;4.20;;
80332;SDS011;69652;51.864;-2.246;2023-11-19T10:44:30;12.95;;;3.40;;
80332;SDS011;69652;51.864;-2.246;2023-11-19T10:47:00;19.95;;;3.13;;
80332;SDS011;69652;51.864;-2.246;2023-11-19T10:49:26;13.73;;;2.92;;
80332;SDS011;69652;51.864;-2.246;2023-11-19T10:51:52;21.83;;;4.60;;
80332;SDS011;69652;51.864;-2.246;2023-11-19T10:54:21;16.58;;;3.00;;
80332;SDS011;69652;51.864;-2.246;2023-11-19T10:56:50;23.23;;;3.33;;
80332;SDS011;69652;51.864;-2.246;2023-11-19T10:59:21;17.63;;;2.85;;
80332;SDS011;69652;51.864;-2.246;2023-11-19T11:01:47;30.83;;;4.50;;
80332;SDS011;69652;51.864;-2.246;2023-11-19T11:04:18;27.58;;;4.03;;
80332;SDS011;69652;51.864;-2.246;2023-11-19T11:06:47;24.67;;;4.30;;
80332;SDS011;69652;51.864;-2.246;2023-11-19T11:09:13;27.75;;;4.28;;
80332;SDS011;69652;51.864;-2.246;2023-11-19T11:11:40;21.67;;;3.80;;
80332;SDS011;69652;51.864;-2.246;2023-11-19T11:14:09;30.70;;;5.60;;
80332;SDS011;69652;51.864;-2.246;2023-11-19T11:16:42;25.08;;;3.97;;
80332;SDS011;69652;51.864;-2.246;2023-11-19T11:19:09;24.92;;;4.50;;
80332;SDS011;69652;51.864;-2.246;2023-11-19T11:21:41;20.33;;;3.45;;
80332;SDS011;69652;51.864;-2.246;2023-11-19T11:24:13;24.77;;;4.18;;
80332;SDS011;69652;51.864;-2.246;2023-11-19T11:27:33;20.05;;;4.13;;
80332;SDS011;69652;51.864;-2.246;2023-11-19T11:30:00;21.75;;;3.33;;
80332;SDS011;69652;51.864;-2.246;2023-11-19T11:32:42;23.30;;;3.40;;
80332;SDS011;69652;51.864;-2.246;2023-11-19T11:38:03;42.15;;;5.20;;
80332;SDS011;69652;51.864;-2.246;2023-11-19T11:40:31;20.05;;;3.42;;
80332;SDS011;69652;51.864;-2.246;2023-11-19T11:42:57;19.10;;;3.63;;
80332;SDS011;69652;51.864;-2.246;2023-11-19T11:45:39;16.67;;;3.80;;
80332;SDS011;69652;51.864;-2.246;2023-11-19T11:50:55;12.85;;;3.08;;
80332;SDS011;69652;51.864;-2.246;2023-11-19T11:53:23;12.70;;;2.55;;
80332;SDS011;69652;51.864;-2.246;2023-11-19T11:58:18;10.35;;;1.90;;
80332;SDS011;69652;51.864;-2.246;2023-11-19T12:00:51;15.27;;;3.22;;
80332;SDS011;69652;51.864;-2.246;2023-11-19T12:03:18;17.08;;;2.58;;
80332;SDS011;69652;51.864;-2.246;2023-11-19T12:05:47;14.43;;;2.33;;
80332;SDS011;69652;51.864;-2.246;2023-11-19T12:08:13;13.80;;;2.05;;
80332;SDS011;69652;51.864;-2.246;2023-11-19T12:10:46;20.10;;;3.63;;
80332;SDS011;69652;51.864;-2.246;2023-11-19T12:13:17;17.20;;;3.75;;
80332;SDS011;69652;51.864;-2.246;2023-11-19T12:18:28;14.00;;;2.50;;
80332;SDS011;69652;51.864;-2.246;2023-11-19T12:20:55;11.07;;;2.50;;
80332;SDS011;69652;51.864;-2.246;2023-11-19T12:23:23;12.80;;;1.88;;
80332;SDS011;69652;51.864;-2.246;2023-11-19T12:25:50;9.80;;;1.80;;
80332;SDS011;69652;51.864;-2.246;2023-11-19T12:28:15;11.75;;;2.05;;
80332;SDS011;69652;51.864;-2.246;2023-11-19T12:30:44;17.60;;;2.90;;
80332;SDS011;69652;51.864;-2.246;2023-11-19T12:33:11;10.63;;;1.80;;
80332;SDS011;69652;51.864;-2.246;2023-11-19T12:35:40;16.90;;;2.97;;
80332;SDS011;69652;51.864;-2.246;2023-11-19T12:38:19;11.73;;;2.10;;
80332;SDS011;69652;51.864;-2.246;2023-11-19T12:40:46;12.48;;;2.40;;
80332;SDS011;69652;51.864;-2.246;2023-11-19T12:43:20;11.55;;;2.17;;
80332;SDS011;69652;51.864;-2.246;2023-11-19T12:45:47;15.25;;;4.25;;
80332;SDS011;69652;51.864;-2.246;2023-11-19T12:48:13;8.23;;;1.83;;
80332;SDS011;69652;51.864;-2.246;2023-11-19T12:50:51;10.13;;;1.75;;
80332;SDS011;69652;51.864;-2.246;2023-11-19T12:53:21;7.40;;;1.48;;
80332;SDS011;69652;51.864;-2.246;2023-11-19T12:55:47;14.18;;;2.53;;
80332;SDS011;69652;51.864;-2.246;2023-11-19T12:58:32;7.03;;;1.75;;
80332;SDS011;69652;51.864;-2.246;2023-11-19T13:01:06;9.98;;;1.75;;
80332;SDS011;69652;51.864;-2.246;2023-11-19T13:03:33;10.30;;;1.92;;
80332;SDS011;69652;51.864;-2.246;2023-11-19T13:06:03;6.80;;;2.15;;
80332;SDS011;69652;51.864;-2.246;2023-11-19T13:08:40;8.88;;;1.90;;
80332;SDS011;69652;51.864;-2.246;2023-11-19T13:11:09;8.75;;;2.00;;
80332;SDS011;69652;51.864;-2.246;2023-11-19T13:13:55;10.98;;;2.67;;
80332;SDS011;69652;51.864;-2.246;2023-11-19T13:16:21;16.00;;;3.03;;
80332;SDS011;69652;51.864;-2.246;2023-11-19T13:18:47;14.07;;;3.00;;
80332;SDS011;69652;51.864;-2.246;2023-11-19T13:21:13;16.80;;;2.92;;
80332;SDS011;69652;51.864;-2.246;2023-11-19T13:23:38;11.88;;;3.08;;
80332;SDS011;69652;51.864;-2.246;2023-11-19T13:26:04;16.02;;;2.38;;
80332;SDS011;69652;51.864;-2.246;2023-11-19T13:28:29;13.40;;;2.47;;
80332;SDS011;69652;51.864;-2.246;2023-11-19T13:30:55;8.02;;;2.30;;
80332;SDS011;69652;51.864;-2.246;2023-11-19T13:33:21;7.45;;;1.90;;
80332;SDS011;69652;51.864;-2.246;2023-11-19T13:35:46;9.55;;;1.98;;
80332;SDS011;69652;51.864;-2.246;2023-11-19T13:38:12;14.80;;;2.60;;
80332;SDS011;69652;51.864;-2.246;2023-11-19T13:40:37;10.90;;;2.60;;
80332;SDS011;69652;51.864;-2.246;2023-11-19T13:43:04;11.35;;;2.92;;
80332;SDS011;69652;51.864;-2.246;2023-11-19T13:45:30;13.18;;;2.42;;
80332;SDS011;69652;51.864;-2.246;2023-11-19T13:47:55;10.55;;;2.45;;
80332;SDS011;69652;51.864;-2.246;2023-11-19T13:50:21;11.85;;;2.33;;
80332;SDS011;69652;51.864;-2.246;2023-11-19T13:52:48;11.25;;;2.78;;
80332;SDS011;69652;51.864;-2.246;2023-11-19T13:55:13;10.27;;;3.33;;
80332;SDS011;69652;51.864;-2.246;2023-11-19T13:57:40;12.50;;;4.18;;
80332;SDS011;69652;51.864;-2.246;2023-11-19T14:00:10;20.02;;;3.47;;
80332;SDS011;69652;51.864;-2.246;2023-11-19T14:02:44;19.30;;;5.68;;
80332;SDS011;69652;51.864;-2.246;2023-11-19T14:05:12;10.63;;;3.00;;
80332;SDS011;69652;51.864;-2.246;2023-11-19T14:07:39;11.90;;;3.47;;
80332;SDS011;69652;51.864;-2.246;2023-11-19T14:10:05;12.98;;;2.50;;
80332;SDS011;69652;51.864;-2.246;2023-11-19T14:12:32;9.70;;;2.83;;
80332;SDS011;69652;51.864;-2.246;2023-11-19T14:14:58;13.00;;;2.88;;
80332;SDS011;69652;51.864;-2.246;2023-11-19T14:17:25;11.55;;;3.30;;
80332;SDS011;69652;51.864;-2.246;2023-11-19T14:19:51;15.88;;;4.40;;
80332;SDS011;69652;51.864;-2.246;2023-11-19T14:22:17;12.55;;;2.75;;
80332;SDS011;69652;51.864;-2.246;2023-11-19T14:24:42;11.30;;;3.03;;
80332;SDS011;69652;51.864;-2.246;2023-11-19T14:27:11;9.75;;;2.20;;
80332;SDS011;69652;51.864;-2.246;2023-11-19T14:29:36;12.18;;;2.38;;
80332;SDS011;69652;51.864;-2.246;2023-11-19T14:32:02;12.75;;;2.80;;
80332;SDS011;69652;51.864;-2.246;2023-11-19T14:34:29;10.15;;;3.60;;